Time;durP1;ratioP1;P1;durP2;ratioP2;P2;SDS_P1;SDS_P2;PMS_P1;PMS_P2;Temp;Humidity;BMP_temperature;BMP_pressure;BME280_temperature;BME280_humidity;BME280_pressure;Samples;Min_cycle;Max_cycle;Signal;HPM_P1;HPM_P2
2023/12/16 00:01:53;;;;;;;;;;;;;;;12.99;75.08;102734.50;7351955;19;24218;-65
2023/12/16 00:04:18;;;;;;;;;;;;;;;12.98;75.29;102743.25;7351011;19;19929;-65
2023/12/16 00:06:43;;;;;;;;;;;;;;;12.96;74.90;102742.34;7344967;19;19919;-66
2023/12/16 00:09:09;;;;;;;;;;;;;;;12.95;74.90;102740.59;7349268;19;19950;-65
2023/12/16 00:11:34;;;;;;;;;;;;;;;12.92;74.95;102733.59;7348694;19;19956;-66
2023/12/16 00:13:59;;;;;;;;;;;;;;;12.88;74.98;102731.88;7347725;19;20555;-65
2023/12/16 00:16:25;;;;;;;;;;;;;;;12.85;74.81;102736.25;7348885;19;19926;-65
2023/12/16 00:18:51;;;;;;;;;;;;;;;12.82;74.85;102733.59;7356170;19;19922;-65
2023/12/16 00:21:16;;;;;;;;;;;;;;;12.78;74.35;102729.25;7352919;19;20005;-65
2023/12/16 00:23:42;;;;;;;;;;;;;;;12.72;74.82;102723.13;7351283;19;19922;-66
2023/12/16 00:26:07;;;;;;;;;;;;;;;12.68;74.70;102731.88;7351147;19;20296;-65
2023/12/16 00:28:32;;;;;;;;;;;;;;;12.62;74.60;102726.63;7347081;19;19919;-65
2023/12/16 00:30:57;;;;;;;;;;;;;;;12.58;74.50;102735.34;7358111;19;19918;-66
2023/12/16 00:33:23;;;;;;;;;;;;;;;12.53;74.30;102729.22;7356916;19;19914;-66
2023/12/16 00:35:48;;;;;;;;;;;;;;;12.48;74.70;102730.97;7362124;19;19957;-65
2023/12/16 00:38:13;;;;;;;;;;;;;;;12.43;74.45;102724.84;7364828;19;20333;-65
2023/12/16 00:40:38;;;;;;;;;;;;;;;12.38;74.70;102734.44;7354706;19;20264;-65
2023/12/16 00:43:04;;;;;;;;;;;;;;;12.34;74.86;102727.44;7360623;19;19931;-65
2023/12/16 00:45:29;;;;;;;;;;;;;;;12.29;74.63;102722.19;7356196;19;19934;-65
2023/12/16 00:47:54;;;;;;;;;;;;;;;12.26;74.61;102718.66;7350650;19;20037;-65
2023/12/16 00:50:20;;;;;;;;;;;;;;;12.22;74.89;102720.41;7354715;19;19919;-66
2023/12/16 00:52:45;;;;;;;;;;;;;;;12.17;74.61;102717.78;7358842;19;19919;-66
2023/12/16 00:55:10;;;;;;;;;;;;;;;12.14;74.73;102716.91;7360464;19;19915;-65
2023/12/16 00:57:35;;;;;;;;;;;;;;;12.10;74.93;102709.88;7356256;19;20648;-65
2023/12/16 01:00:01;;;;;;;;;;;;;;;12.06;75.07;102709.00;7361399;19;19922;-65
2023/12/16 01:02:27;;;;;;;;;;;;;;;12.04;74.61;102704.63;7352860;19;20888;-65
2023/12/16 01:04:52;;;;;;;;;;;;;;;12.00;74.95;102702.88;7356122;19;19933;-65
2023/12/16 01:07:17;;;;;;;;;;;;;;;11.97;74.96;102701.13;7347473;19;20936;-65
2023/12/16 01:09:42;;;;;;;;;;;;;;;11.93;75.17;102699.38;7347724;19;20368;-65
2023/12/16 01:12:09;;;;;;;;;;;;;;;11.91;75.16;102698.47;7353119;19;19922;-65
2023/12/16 01:14:34;;;;;;;;;;;;;;;11.88;75.23;102698.47;7359037;19;19923;-65
2023/12/16 01:16:59;;;;;;;;;;;;;;;11.85;75.21;102696.72;7351913;19;19915;-64
2023/12/16 01:19:26;;;;;;;;;;;;;;;11.82;75.03;102706.31;7357552;19;19918;-65
2023/12/16 01:21:52;;;;;;;;;;;;;;;11.80;75.31;102702.75;7356476;19;19930;-65
2023/12/16 01:24:17;;;;;;;;;;;;;;;11.78;75.08;102707.13;7359960;19;19919;-65
2023/12/16 01:26:42;;;;;;;;;;;;;;;11.75;75.05;102705.34;7357884;19;19926;-65
2023/12/16 01:29:07;;;;;;;;;;;;;;;11.74;75.02;102700.13;7358268;19;19919;-65
2023/12/16 01:31:33;;;;;;;;;;;;;;;11.71;75.53;102703.63;7361478;19;19915;-65
2023/12/16 01:33:58;;;;;;;;;;;;;;;11.68;75.12;102701.84;7356519;19;19919;-65
2023/12/16 01:36:23;;;;;;;;;;;;;;;11.66;75.11;102700.97;7360471;19;20783;-65
2023/12/16 01:38:49;;;;;;;;;;;;;;;11.65;75.37;102688.72;7358818;19;19927;-65
2023/12/16 01:41:14;;;;;;;;;;;;;;;11.63;75.31;102692.22;7356760;19;19931;-65
2023/12/16 01:43:39;;;;;;;;;;;;;;;11.61;75.29;102688.75;7356974;19;19925;-65
2023/12/16 01:46:04;;;;;;;;;;;;;;;11.59;75.33;102678.25;7354498;19;19939;-65
2023/12/16 01:48:30;;;;;;;;;;;;;;;11.58;75.27;102675.63;7358682;19;20463;-65
2023/12/16 01:50:56;;;;;;;;;;;;;;;11.55;75.36;102678.22;7354152;19;20151;-65
2023/12/16 01:53:21;;;;;;;;;;;;;;;11.53;75.70;102675.59;7359344;19;19918;-65
2023/12/16 01:55:46;;;;;;;;;;;;;;;11.52;75.34;102671.25;7355167;19;19919;-65
2023/12/16 01:58:12;;;;;;;;;;;;;;;11.51;75.79;102676.47;7360105;19;19925;-65
2023/12/16 02:00:37;;;;;;;;;;;;;;;11.50;75.72;102675.56;7360354;19;19915;-65
2023/12/16 02:03:03;;;;;;;;;;;;;;;11.48;75.89;102682.56;7352901;19;19922;-65
2023/12/16 02:05:28;;;;;;;;;;;;;;;11.48;75.57;102682.56;7353259;19;19922;-64
2023/12/16 02:07:54;;;;;;;;;;;;;;;11.28;75.57;102639.72;7356701;19;19919;-64
2023/12/16 02:10:19;;;;;;;;;;;;;;;11.47;76.08;102672.97;7354178;19;19922;-65
2023/12/16 02:12:44;;;;;;;;;;;;;;;11.46;75.99;102667.72;7357649;19;19918;-66
2023/12/16 02:15:09;;;;;;;;;;;;;;;11.44;75.66;102660.72;7359733;19;19926;-65
2023/12/16 02:17:35;;;;;;;;;;;;;;;11.45;75.79;102666.81;7348503;19;19914;-66
2023/12/16 02:20:00;;;;;;;;;;;;;;;11.44;75.69;102670.31;7357006;19;19914;-65
2023/12/16 02:22:25;;;;;;;;;;;;;;;11.44;75.65;102665.09;7352535;19;19914;-65
2023/12/16 02:24:52;;;;;;;;;;;;;;;11.44;75.78;102670.31;7354177;19;19942;-65
2023/12/16 02:27:18;;;;;;;;;;;;;;;11.43;75.74;102673.81;7354558;19;19914;-65
2023/12/16 02:29:43;;;;;;;;;;;;;;;11.41;75.91;102671.19;7358142;19;20638;-65
2023/12/16 02:32:08;;;;;;;;;;;;;;;11.42;75.66;102677.28;7360823;19;20290;-65
2023/12/16 02:34:33;;;;;;;;;;;;;;;11.41;75.89;102678.16;7360183;19;19918;-65
2023/12/16 02:37:02;;;;;;;;;;;;;;;11.40;75.87;102684.25;7356888;19;20385;-65
2023/12/16 02:39:27;;;;;;;;;;;;;;;11.39;75.56;102685.13;7354297;19;19910;-65
2023/12/16 02:41:53;;;;;;;;;;;;;;;11.38;75.60;102672.91;7357106;19;19929;-65
2023/12/16 02:44:18;;;;;;;;;;;;;;;11.37;75.53;102679.00;7352549;19;19935;-65
2023/12/16 02:46:43;;;;;;;;;;;;;;;11.36;75.50;102674.66;7363050;19;19926;-65
2023/12/16 02:49:08;;;;;;;;;;;;;;;11.34;75.80;102689.44;7346298;19;19950;-65
2023/12/16 02:51:34;;;;;;;;;;;;;;;11.34;75.92;102678.97;7360217;19;19933;-65
2023/12/16 02:53:59;;;;;;;;;;;;;;;11.32;75.87;102689.44;7362074;19;19918;-65
2023/12/16 02:56:24;;;;;;;;;;;;;;;11.32;75.67;102680.72;7367896;19;19914;-65
2023/12/16 02:58:50;;;;;;;;;;;;;;;11.30;75.56;102677.22;7357174;19;19919;-65
2023/12/16 03:01:15;;;;;;;;;;;;;;;11.30;75.90;102682.44;7358705;19;19915;-65
2023/12/16 03:03:40;;;;;;;;;;;;;;;11.22;75.73;102669.34;7359308;19;19944;-65
2023/12/16 03:06:06;;;;;;;;;;;;;;;11.28;75.74;102681.56;7360369;19;19930;-65
2023/12/16 03:08:31;;;;;;;;;;;;;;;11.26;75.83;102683.31;7365782;19;19918;-65
2023/12/16 03:10:56;;;;;;;;;;;;;;;11.24;75.57;102685.03;7366317;19;19929;-65
2023/12/16 03:13:22;;;;;;;;;;;;;;;11.23;75.97;102680.66;7369466;19;19943;-64
2023/12/16 03:15:47;;;;;;;;;;;;;;;11.21;75.63;102677.19;7365585;19;19914;-64
2023/12/16 03:18:12;;;;;;;;;;;;;;;11.20;75.95;102675.41;7364205;19;19922;-65
2023/12/16 03:20:37;;;;;;;;;;;;;;;11.17;75.78;102682.38;7355408;19;19927;-65
2023/12/16 03:23:03;;;;;;;;;;;;;;;11.17;75.97;102682.38;7360850;19;19926;-65
2023/12/16 03:25:28;;;;;;;;;;;;;;;11.16;75.73;102679.75;7361486;19;19915;-66
2023/12/16 03:27:54;;;;;;;;;;;;;;;11.14;76.07;102682.34;7357594;19;20636;-64
2023/12/16 03:30:19;;;;;;;;;;;;;;;11.13;76.16;102675.38;7360218;19;20356;-65
2023/12/16 03:32:45;;;;;;;;;;;;;;;11.10;76.04;102672.75;7357950;19;19932;-65
2023/12/16 03:35:10;;;;;;;;;;;;;;;11.09;75.79;102678.81;7363936;19;20778;-65
2023/12/16 03:37:35;;;;;;;;;;;;;;;11.09;75.81;102673.59;7358562;19;19919;-65
2023/12/16 03:40:01;;;;;;;;;;;;;;;11.07;75.81;102670.09;7361365;19;20510;-65
2023/12/16 03:42:26;;;;;;;;;;;;;;;11.07;76.16;102677.06;7359082;19;19948;-64
2023/12/16 03:44:51;;;;;;;;;;;;;;;11.04;76.20;102667.47;7358310;19;19930;-65
2023/12/16 03:47:16;;;;;;;;;;;;;;;11.02;75.80;102663.97;7363499;19;20672;-65
2023/12/16 03:49:42;;;;;;;;;;;;;;;11.01;75.93;102659.63;7360254;19;19926;-64
2023/12/16 03:52:07;;;;;;;;;;;;;;;11.00;75.98;102657.88;7358530;19;19911;-64
2023/12/16 03:54:32;;;;;;;;;;;;;;;10.99;75.95;102661.31;7355158;19;19922;-65
2023/12/16 03:56:57;;;;;;;;;;;;;;;10.98;76.35;102664.81;7363211;19;19911;-64
2023/12/16 03:59:23;;;;;;;;;;;;;;;10.97;76.23;102656.97;7360806;19;19940;-65
2023/12/16 04:01:48;;;;;;;;;;;;;;;10.97;76.22;102662.19;7356860;19;19941;-65
2023/12/16 04:04:13;;;;;;;;;;;;;;;10.95;75.91;102664.81;7361985;19;20558;-65
2023/12/16 04:06:38;;;;;;;;;;;;;;;10.94;76.27;102663.03;7364167;19;19915;-64
2023/12/16 04:09:04;;;;;;;;;;;;;;;10.93;75.96;102661.28;7369750;19;19926;-65
2023/12/16 04:11:29;;;;;;;;;;;;;;;10.92;76.02;102664.78;7369683;19;20641;-65
2023/12/16 04:13:54;;;;;;;;;;;;;;;10.92;75.92;102659.53;7374545;19;19919;-65
2023/12/16 04:16:19;;;;;;;;;;;;;;;10.90;76.25;102671.75;7368871;19;19948;-64
2023/12/16 04:18:45;;;;;;;;;;;;;;;10.90;76.32;102666.50;7339600;19;19918;-64
2023/12/16 04:21:10;;;;;;;;;;;;;;;10.88;76.07;102674.31;7364363;19;20336;-65
2023/12/16 04:23:35;;;;;;;;;;;;;;;10.88;76.46;102669.09;7374395;19;20570;-64
2023/12/16 04:26:01;;;;;;;;;;;;;;;10.87;76.06;102661.25;7372816;19;20482;-64
2023/12/16 04:28:26;;;;;;;;;;;;;;;10.86;76.11;102659.50;7377555;19;19914;-65
2023/12/16 04:30:51;;;;;;;;;;;;;;;10.86;76.38;102659.50;7376584;19;20371;-64
2023/12/16 04:33:16;;;;;;;;;;;;;;;10.86;76.62;102662.13;7375809;19;19964;-65
2023/12/16 04:35:42;;;;;;;;;;;;;;;10.84;76.56;102651.63;7376837;19;19918;-65
2023/12/16 04:38:07;;;;;;;;;;;;;;;10.85;76.51;102652.53;7371033;19;19939;-65
2023/12/16 04:40:32;;;;;;;;;;;;;;;10.85;76.25;102649.91;7365116;19;19910;-65
2023/12/16 04:42:57;;;;;;;;;;;;;;;10.84;76.58;102656.84;7368203;19;19919;-65
2023/12/16 04:45:23;;;;;;;;;;;;;;;10.84;76.50;102643.78;7359898;19;19915;-64
2023/12/16 04:47:48;;;;;;;;;;;;;;;10.84;76.59;102655.97;7366659;19;19927;-65
2023/12/16 04:50:14;;;;;;;;;;;;;;;10.83;76.58;102660.34;7363671;19;19922;-65
2023/12/16 04:52:39;;;;;;;;;;;;;;;10.83;76.36;102685.59;7370207;19;19923;-64
2023/12/16 04:55:05;;;;;;;;;;;;;;;10.84;76.51;102666.44;7363888;19;20020;-64
2023/12/16 04:57:30;;;;;;;;;;;;;;;10.83;76.30;102659.47;7363557;19;19931;-65
2023/12/16 04:59:55;;;;;;;;;;;;;;;10.83;76.57;102654.25;7367541;19;19939;-64
2023/12/16 05:02:20;;;;;;;;;;;;;;;10.83;76.71;102649.00;7366662;19;20259;-65
2023/12/16 05:04:46;;;;;;;;;;;;;;;10.84;76.27;102655.97;7365538;19;19910;-65
2023/12/16 05:07:11;;;;;;;;;;;;;;;10.84;76.56;102650.75;7364469;19;19922;-65
2023/12/16 05:09:36;;;;;;;;;;;;;;;10.84;76.70;102655.97;7365356;19;19919;-64
2023/12/16 05:12:02;;;;;;;;;;;;;;;10.84;76.36;102651.63;7367101;19;19934;-65
2023/12/16 05:14:27;;;;;;;;;;;;;;;10.84;76.71;102658.59;7367023;19;19914;-64
2023/12/16 05:16:53;;;;;;;;;;;;;;;10.84;76.69;102661.22;7370851;19;19933;-65
2023/12/16 05:19:18;;;;;;;;;;;;;;;10.83;76.25;102659.47;7362085;19;19918;-64
2023/12/16 05:21:44;;;;;;;;;;;;;;;10.82;76.55;102653.38;7366918;19;19941;-65
2023/12/16 05:24:09;;;;;;;;;;;;;;;10.83;76.59;102667.31;7362964;19;19923;-65
2023/12/16 05:26:34;;;;;;;;;;;;;;;10.81;76.63;102661.22;7365984;19;19935;-65
2023/12/16 05:29:00;;;;;;;;;;;;;;;10.80;76.66;102656.84;7364028;19;19922;-64
2023/12/16 05:31:25;;;;;;;;;;;;;;;10.79;76.30;102655.06;7367616;19;20248;-65
2023/12/16 05:33:50;;;;;;;;;;;;;;;10.79;76.67;102655.06;7365400;19;19986;-65
2023/12/16 05:36:15;;;;;;;;;;;;;;;10.77;76.33;102654.19;7365780;19;19923;-65
2023/12/16 05:38:41;;;;;;;;;;;;;;;10.76;76.37;102647.22;7357741;19;20292;-65
2023/12/16 05:41:06;;;;;;;;;;;;;;;10.75;76.47;102656.81;7369027;19;19955;-65
2023/12/16 05:43:32;;;;;;;;;;;;;;;10.75;76.57;102653.31;7366225;19;19922;-65
2023/12/16 05:45:57;;;;;;;;;;;;;;;10.72;76.33;102675.06;7367347;19;19926;-65
2023/12/16 05:48:22;;;;;;;;;;;;;;;10.74;76.29;102657.66;7365807;19;19915;-65
2023/12/16 05:50:47;;;;;;;;;;;;;;;10.72;76.68;102668.97;7365344;19;20481;-64
2023/12/16 05:53:12;;;;;;;;;;;;;;;10.72;76.35;102663.75;7368547;19;19970;-64
2023/12/16 05:55:39;;;;;;;;;;;;;;;10.71;76.35;102652.41;7351487;19;19946;-65
2023/12/16 05:58:04;;;;;;;;;;;;;;;10.71;76.67;102651.53;7364977;19;20680;-65
2023/12/16 06:00:29;;;;;;;;;;;;;;;10.70;76.55;102658.50;7363462;19;19919;-65
2023/12/16 06:02:54;;;;;;;;;;;;;;;10.70;76.41;102658.50;7364606;19;19964;-64
2023/12/16 06:05:20;;;;;;;;;;;;;;;10.70;76.73;102657.63;7362114;19;20016;-65
2023/12/16 06:07:46;;;;;;;;;;;;;;;10.69;76.53;102645.41;7333384;19;19915;-64
2023/12/16 06:10:11;;;;;;;;;;;;;;;10.69;76.77;102642.81;7364842;19;19923;-65
2023/12/16 06:12:36;;;;;;;;;;;;;;;10.68;76.63;102654.13;7365929;19;20589;-65
2023/12/16 06:15:02;;;;;;;;;;;;;;;10.68;76.88;102659.34;7365253;19;19930;-65
2023/12/16 06:17:27;;;;;;;;;;;;;;;10.68;76.91;102656.72;7363919;19;19911;-64
2023/12/16 06:19:52;;;;;;;;;;;;;;;10.67;77.03;102657.59;7367212;19;19922;-65
2023/12/16 06:22:17;;;;;;;;;;;;;;;10.67;77.14;102661.09;7360367;19;19907;-65
2023/12/16 06:24:43;;;;;;;;;;;;;;;10.68;76.85;102669.78;7365170;19;20016;-65
2023/12/16 06:27:08;;;;;;;;;;;;;;;10.68;76.99;102662.84;7363527;19;19915;-65
2023/12/16 06:29:33;;;;;;;;;;;;;;;10.67;76.92;102666.31;7363944;19;19923;-65
2023/12/16 06:31:59;;;;;;;;;;;;;;;10.68;76.78;102661.97;7364563;19;19932;-65
2023/12/16 06:34:24;;;;;;;;;;;;;;;10.68;77.17;102660.22;7365888;19;20033;-65
2023/12/16 06:36:49;;;;;;;;;;;;;;;10.69;77.06;102661.09;7362584;19;20333;-65
2023/12/16 06:39:15;;;;;;;;;;;;;;;10.68;77.12;102656.72;7370981;19;19930;-64
2023/12/16 06:41:40;;;;;;;;;;;;;;;10.67;76.91;102662.81;7364620;19;20631;-65
2023/12/16 06:44:05;;;;;;;;;;;;;;;10.67;76.92;102679.38;7365332;19;20322;-64
2023/12/16 06:46:30;;;;;;;;;;;;;;;10.66;76.90;102693.31;7362883;19;19926;-65
2023/12/16 06:48:56;;;;;;;;;;;;;;;10.67;76.93;102689.81;7340913;19;19919;-65
2023/12/16 06:51:21;;;;;;;;;;;;;;;10.67;76.88;102686.34;7362099;19;20387;-65
2023/12/16 06:53:47;;;;;;;;;;;;;;;10.65;77.12;102684.59;7364796;19;20215;-65
2023/12/16 06:56:12;;;;;;;;;;;;;;;10.65;77.17;102681.13;7354706;19;20944;-65
2023/12/16 06:58:37;;;;;;;;;;;;;;;10.64;77.08;102690.69;7361667;19;19929;-65
2023/12/16 07:01:03;;;;;;;;;;;;;;;10.67;76.94;102688.97;7366092;19;19919;-65
2023/12/16 07:03:28;;;;;;;;;;;;;;;10.65;77.32;102697.66;7361920;19;19930;-65
2023/12/16 07:05:54;;;;;;;;;;;;;;;10.67;77.26;102702.03;7363018;19;20632;-65
2023/12/16 07:08:19;;;;;;;;;;;;;;;10.64;77.25;102695.91;7362773;19;20316;-64
2023/12/16 07:10:44;;;;;;;;;;;;;;;10.65;77.05;102702.03;7364058;19;19974;-65
2023/12/16 07:13:09;;;;;;;;;;;;;;;10.65;77.37;102707.25;7364616;19;19927;-65
2023/12/16 07:15:35;;;;;;;;;;;;;;;10.67;77.43;102707.25;7367996;19;19922;-64
2023/12/16 07:18:00;;;;;;;;;;;;;;;10.64;77.14;102698.53;7361603;19;19931;-64
2023/12/16 07:20:25;;;;;;;;;;;;;;;10.67;77.55;102709.84;7362796;19;20656;-65
2023/12/16 07:22:51;;;;;;;;;;;;;;;10.65;77.54;102696.78;7363328;19;19922;-65
2023/12/16 07:25:16;;;;;;;;;;;;;;;10.65;77.14;102697.66;7360658;19;20276;-64
2023/12/16 07:27:43;;;;;;;;;;;;;;;10.66;77.32;102682.84;7361566;19;19919;-65
2023/12/16 07:30:08;;;;;;;;;;;;;;;10.67;77.69;102681.13;7360816;19;20692;-65
2023/12/16 07:32:33;;;;;;;;;;;;;;;10.68;77.58;102683.72;7363556;19;19923;-65
2023/12/16 07:34:59;;;;;;;;;;;;;;;10.69;77.74;102668.94;7356649;19;19922;-65
2023/12/16 07:37:24;;;;;;;;;;;;;;;10.70;77.58;102663.75;7362182;19;19929;-65
2023/12/16 07:39:49;;;;;;;;;;;;;;;10.71;77.84;102664.59;7364248;19;19974;-65
2023/12/16 07:42:14;;;;;;;;;;;;;;;10.73;77.82;102650.69;7370903;19;20678;-65
2023/12/16 07:44:40;;;;;;;;;;;;;;;10.75;77.54;102651.59;7368118;19;19925;-64
2023/12/16 07:47:05;;;;;;;;;;;;;;;10.77;77.67;102646.34;7365372;19;19955;-65
2023/12/16 07:49:30;;;;;;;;;;;;;;;10.78;77.80;102630.69;7370195;19;19927;-66
2023/12/16 07:51:57;;;;;;;;;;;;;;;10.80;77.90;102638.56;7367282;19;20013;-65
2023/12/16 07:54:23;;;;;;;;;;;;;;;10.80;77.86;102628.09;7364342;19;19922;-67
2023/12/16 07:56:48;;;;;;;;;;;;;;;10.82;77.98;102644.66;7365357;19;20717;-65
2023/12/16 07:59:13;;;;;;;;;;;;;;;10.84;77.51;102629.84;7366650;19;19929;-65
2023/12/16 08:01:39;;;;;;;;;;;;;;;10.84;77.46;102642.91;7367504;19;20691;-65
2023/12/16 08:04:04;;;;;;;;;;;;;;;10.85;77.73;102626.41;7363463;19;20471;-66
2023/12/16 08:06:29;;;;;;;;;;;;;;;10.86;77.54;102625.53;7368281;19;20342;-64
2023/12/16 08:08:54;;;;;;;;;;;;;;;10.87;77.80;102635.13;7362832;19;19947;-64
2023/12/16 08:11:20;;;;;;;;;;;;;;;10.86;77.47;102638.59;7368886;19;19915;-65
2023/12/16 08:13:45;;;;;;;;;;;;;;;10.88;77.82;102642.09;7372745;19;20351;-66
2023/12/16 08:16:11;;;;;;;;;;;;;;;10.88;77.77;102623.78;7375895;19;20542;-65
2023/12/16 08:18:36;;;;;;;;;;;;;;;10.89;77.74;102622.91;7371284;19;19966;-65
2023/12/16 08:21:02;;;;;;;;;;;;;;;10.89;77.38;102607.22;7365179;19;19935;-65
2023/12/16 08:23:27;;;;;;;;;;;;;;;10.89;77.74;102618.56;7369093;19;19919;-65
2023/12/16 08:25:52;;;;;;;;;;;;;;;10.89;77.32;102617.69;7367542;19;19918;-65
2023/12/16 08:28:17;;;;;;;;;;;;;;;10.89;77.31;102618.56;7367090;19;19919;-65
2023/12/16 08:30:43;;;;;;;;;;;;;;;10.89;77.66;102618.56;7367147;19;20561;-65
2023/12/16 08:33:08;;;;;;;;;;;;;;;10.90;77.69;102620.34;7371521;19;19926;-65
2023/12/16 08:35:34;;;;;;;;;;;;;;;10.90;77.29;102619.47;7370013;19;19918;-64
2023/12/16 08:38:01;;;;;;;;;;;;;;;10.91;77.49;102621.19;7372224;19;20320;-66
2023/12/16 08:40:26;;;;;;;;;;;;;;;10.90;77.74;102624.69;7361428;19;19926;-65
2023/12/16 08:42:51;;;;;;;;;;;;;;;10.90;77.66;102606.41;7370448;19;19937;-65
2023/12/16 08:45:17;;;;;;;;;;;;;;;10.90;77.67;102614.22;7360345;19;20420;-65
2023/12/16 08:47:42;;;;;;;;;;;;;;;10.93;77.21;102606.38;7366685;19;19918;-65
2023/12/16 08:50:08;;;;;;;;;;;;;;;10.91;77.23;102606.38;7347395;19;19928;-64
2023/12/16 08:52:36;;;;;;;;;;;;;;;10.91;77.64;102601.16;7364381;19;19954;-65
2023/12/16 08:55:03;;;;;;;;;;;;;;;10.91;77.58;102606.38;7359446;19;19974;-65
2023/12/16 08:57:28;;;;;;;;;;;;;;;10.91;77.32;102619.47;7365754;19;20363;-65
2023/12/16 08:59:54;;;;;;;;;;;;;;;10.92;77.22;102625.56;7362639;19;19915;-65
2023/12/16 09:02:19;;;;;;;;;;;;;;;10.94;77.66;102626.44;7369498;19;20628;-65
2023/12/16 09:04:44;;;;;;;;;;;;;;;10.94;77.52;102649.97;7368666;19;20265;-65
2023/12/16 09:07:10;;;;;;;;;;;;;;;10.95;77.36;102654.34;7371441;19;19925;-65
2023/12/16 09:09:35;;;;;;;;;;;;;;;10.96;77.32;102653.47;7361453;19;19971;-65
2023/12/16 09:12:01;;;;;;;;;;;;;;;10.97;77.61;102647.38;7362198;19;19923;-65
2023/12/16 09:14:26;;;;;;;;;;;;;;;10.98;77.50;102664.81;7365222;19;20805;-65
2023/12/16 09:16:51;;;;;;;;;;;;;;;10.98;77.35;102656.97;7362500;19;20462;-65
2023/12/16 09:19:17;;;;;;;;;;;;;;;10.99;77.51;102650.00;7366917;19;19939;-65
2023/12/16 09:21:42;;;;;;;;;;;;;;;10.99;77.33;102656.09;7362838;19;19919;-64
2023/12/16 09:24:07;;;;;;;;;;;;;;;11.00;77.21;102647.41;7364913;19;19919;-65
2023/12/16 09:26:32;;;;;;;;;;;;;;;11.01;77.53;102649.16;7363266;19;22079;-64
2023/12/16 09:28:59;;;;;;;;;;;;;;;11.01;77.42;102637.81;7361591;19;19925;-65
2023/12/16 09:31:24;;;;;;;;;;;;;;;11.03;77.18;102636.09;7368141;19;20637;-66
2023/12/16 09:33:50;;;;;;;;;;;;;;;11.04;77.55;102640.44;7362458;19;19936;-66
2023/12/16 09:36:15;;;;;;;;;;;;;;;11.05;77.31;102624.78;7370388;19;20563;-65
2023/12/16 09:38:40;;;;;;;;;;;;;;;11.07;77.65;102641.34;7361975;19;19922;-66
2023/12/16 09:41:15;;;;;;;;;;;;;;;11.09;77.21;102637.00;7361363;19;19932;-65
2023/12/16 09:43:42;;;;;;;;;;;;;;;11.14;77.40;102631.78;7359527;19;19926;-65
2023/12/16 09:46:08;;;;;;;;;;;;;;;11.15;77.43;102642.28;7359672;19;19919;-65
2023/12/16 09:48:33;;;;;;;;;;;;;;;11.12;77.41;102615.22;7358364;19;20262;-65
2023/12/16 09:50:58;;;;;;;;;;;;;;;11.22;77.39;102616.16;7361364;19;19923;-65
2023/12/16 09:53:23;;;;;;;;;;;;;;;11.24;77.25;102622.25;7356581;19;19959;-66
2023/12/16 09:55:49;;;;;;;;;;;;;;;11.26;77.33;102616.19;7352241;19;20367;-65
2023/12/16 09:58:16;;;;;;;;;;;;;;;11.30;77.23;102619.66;7355443;19;20374;-65
2023/12/16 10:00:45;;;;;;;;;;;;;;;11.33;77.07;102622.31;7359682;19;20494;-65
2023/12/16 10:03:12;;;;;;;;;;;;;;;11.37;77.27;102630.19;7353739;19;19919;-65
2023/12/16 10:05:38;;;;;;;;;;;;;;;11.44;77.37;102625.84;7365667;19;19929;-66
2023/12/16 10:08:05;;;;;;;;;;;;;;;11.55;77.99;102642.47;7366292;19;19923;-66
2023/12/16 10:10:30;;;;;;;;;;;;;;;11.70;78.19;102641.66;7358493;19;19919;-65
2023/12/16 10:12:55;;;;;;;;;;;;;;;11.85;78.33;102656.56;7368636;19;19951;-66
2023/12/16 10:15:31;;;;;;;;;;;;;;;12.01;77.99;102668.84;7360464;19;19926;-66
2023/12/16 10:17:57;;;;;;;;;;;;;;;12.22;78.33;102654.06;7364004;19;19939;-65
2023/12/16 10:20:22;;;;;;;;;;;;;;;12.39;78.02;102650.59;7358472;19;19923;-66
2023/12/16 10:22:48;;;;;;;;;;;;;;;12.59;78.17;102637.50;7361047;19;19943;-65
2023/12/16 10:25:13;;;;;;;;;;;;;;;12.81;77.69;102638.34;7357930;19;19914;-66
2023/12/16 10:27:41;;;;;;;;;;;;;;;12.96;77.70;102633.06;7360788;19;20678;-66
2023/12/16 10:30:07;;;;;;;;;;;;;;;13.17;77.43;102629.53;7357598;19;19951;-66
2023/12/16 10:32:33;;;;;;;;;;;;;;;13.34;76.96;102639.16;7357421;19;19911;-66
2023/12/16 10:34:58;;;;;;;;;;;;;;;13.45;76.81;102640.00;7362778;19;19929;-66
2023/12/16 10:37:23;;;;;;;;;;;;;;;13.66;76.68;102642.53;7359107;19;19982;-66
2023/12/16 10:39:49;;;;;;;;;;;;;;;13.84;76.50;102645.94;7360986;19;19910;-65
2023/12/16 10:42:14;;;;;;;;;;;;;;;14.00;76.15;102652.88;7329831;19;19956;-65
2023/12/16 10:44:39;;;;;;;;;;;;;;;14.18;75.90;102651.88;7354820;19;19918;-66
2023/12/16 10:47:07;;;;;;;;;;;;;;;14.33;75.16;102619.34;7359480;19;20388;-65
2023/12/16 10:49:34;;;;;;;;;;;;;;;14.47;74.42;102609.59;7359784;19;19915;-65
2023/12/16 10:52:09;;;;;;;;;;;;;;;14.58;73.64;102618.31;7353572;19;20250;-66
2023/12/16 10:54:41;;;;;;;;;;;;;;;14.67;73.43;102622.63;7357576;19;19926;-65
2023/12/16 10:57:12;;;;;;;;;;;;;;;14.76;72.94;102636.56;7359373;19;19922;-65
2023/12/16 10:59:40;;;;;;;;;;;;;;;14.84;72.64;102627.72;7354598;19;20446;-65
2023/12/16 11:02:11;;;;;;;;;;;;;;;14.94;72.28;102646.00;7359515;19;19914;-65
2023/12/16 11:04:37;;;;;;;;;;;;;;;15.03;72.21;102635.41;7347953;19;19930;-66
2023/12/16 11:07:05;;;;;;;;;;;;;;;15.17;71.31;102627.38;7358761;19;19919;-65
2023/12/16 11:09:30;;;;;;;;;;;;;;;15.26;72.09;102632.53;7368755;19;19936;-66
2023/12/16 11:11:59;;;;;;;;;;;;;;;15.40;71.83;102626.22;7355875;19;19922;-66
2023/12/16 11:14:25;;;;;;;;;;;;;;;15.54;71.78;102645.38;7354799;19;19922;-65
2023/12/16 11:17:02;;;;;;;;;;;;;;;15.67;71.62;102641.72;7362966;19;19934;-66
2023/12/16 11:19:30;;;;;;;;;;;;;;;15.87;70.51;102646.75;7358614;19;19939;-66
2023/12/16 11:21:55;;;;;;;;;;;;;;;15.98;71.09;102649.22;7359141;19;19922;-65
2023/12/16 11:24:20;;;;;;;;;;;;;;;16.15;69.98;102620.84;7354728;19;20475;-66
2023/12/16 11:26:55;;;;;;;;;;;;;;;16.30;69.90;102625.88;7325410;19;19974;-65
2023/12/16 11:29:23;;;;;;;;;;;;;;;16.50;69.93;102649.28;7356688;19;19921;-66
2023/12/16 11:31:52;;;;;;;;;;;;;;;16.66;69.71;102628.78;7352412;19;19923;-65
2023/12/16 11:34:53;;;;;;;;;;;;;;;16.84;69.76;102628.50;7359028;19;19937;-65
2023/12/16 11:37:36;;;;;;;;;;;;;;;17.10;68.94;102614.81;7346254;19;20572;-65
2023/12/16 11:40:07;;;;;;;;;;;;;;;17.28;67.52;102608.28;7364074;19;19915;-65
2023/12/16 11:42:45;;;;;;;;;;;;;;;17.38;66.59;102598.41;7362035;19;20299;-66
2023/12/16 11:45:10;;;;;;;;;;;;;;;17.44;66.91;102592.16;7356030;19;20274;-66
2023/12/16 11:47:35;;;;;;;;;;;;;;;17.50;67.01;102592.03;7359986;19;19919;-66
2023/12/16 11:50:00;;;;;;;;;;;;;;;17.69;65.84;102596.00;7359754;19;19919;-66
2023/12/16 11:52:27;;;;;;;;;;;;;;;17.85;64.77;102604.50;7355680;19;19951;-65
2023/12/16 11:54:53;;;;;;;;;;;;;;;17.98;63.51;102594.50;7358862;19;20439;-65
2023/12/16 11:57:22;;;;;;;;;;;;;;;18.09;62.90;102592.47;7362462;19;20391;-65
2023/12/16 11:59:48;;;;;;;;;;;;;;;18.13;63.17;102587.06;7360706;19;20355;-66
2023/12/16 12:02:13;;;;;;;;;;;;;;;18.20;63.50;102586.91;7360321;19;19919;-66
2023/12/16 12:04:39;;;;;;;;;;;;;;;18.24;62.63;102580.66;7360270;19;19923;-65
2023/12/16 12:07:05;;;;;;;;;;;;;;;18.18;62.72;102581.66;7358134;19;19949;-65
2023/12/16 12:09:31;;;;;;;;;;;;;;;18.14;60.80;102596.72;7357418;19;19929;-65
2023/12/16 12:11:57;;;;;;;;;;;;;;;18.00;59.73;102603.28;7360168;19;19918;-66
2023/12/16 12:14:24;;;;;;;;;;;;;;;17.80;59.69;102607.25;7361273;19;20391;-66
2023/12/16 12:16:49;;;;;;;;;;;;;;;17.48;60.56;102594.69;7357228;19;19923;-65
2023/12/16 12:19:14;;;;;;;;;;;;;;;17.36;60.27;102611.66;7364330;19;19925;-66
2023/12/16 12:21:40;;;;;;;;;;;;;;;17.16;60.47;102603.28;7361589;19;20036;-65
2023/12/16 12:24:06;;;;;;;;;;;;;;;16.97;61.25;102596.59;7366760;19;19974;-65
2023/12/16 12:26:31;;;;;;;;;;;;;;;16.81;60.92;102599.53;7354185;19;19993;-66
2023/12/16 12:28:57;;;;;;;;;;;;;;;16.66;61.56;102597.13;7360019;19;19919;-65